Askov, Minnesota
Current Conditions -  °F | °C
As of 8:04 AM on Thursday 30 Oct 2014 (Local Time) from K04W Reporting Station
Overcast Overcast  
Wind Chill:   Ceiling: 6000
Heat Index:   Visibility: 10mi
Dew Point:   Wind: 0mph
Humidity: 100%   Direction: NA
Pressure: 30.06"   Gusts: NA
Location:  46.19°N, 92.78°W
Report Text: K04W 301304Z AUTO 00000KT 10SM OVC060 01/01 A3006 RMK AO2
Loading
Personal Weather Stations






























Interactive Weather Map
Tropical Storm Tracking
New forecast layout! Learn more

10-Day Weather Forecast

Advertisements
Track Severe Weather on mobile